Historyczne dane pomiarowe

Dodano dane terminowe – wersja testowa.

Dane z okresu 1951-2019

Wersja bazy: 1.34 [2019-03-16, lista zmian], aktualizacja planowana na 2019-04-15

Dane meteo z obszaru Polski uzyskane na podstawie danych udostępnionych przez Instytut Meteorologii i Gospodarki Wodnej – Państwowy Instytut Badawczy.

 

Wybierz Datę:    

       

TemperaturaWilgotnośćZachmurzenieWiatrCiśnienieWidzialnośćZjawiska
 Data    tng td wb rh cc ccl cl cm ch dir g1 g2 mslp ppp      
1999-07-20 00:00:00 15.1--- 13.1 13.988wxwx0wx--1017.2 992.7 0.0---wx
1999-07-20 01:00:00 15.7--- 13.2 14.285wxwx2wx--1016.9 992.5----wx
1999-07-20 02:00:00 14.7--- 12.7 13.588wxwxwx2wx--1016.7 992.2----wx
1999-07-20 03:00:00 14.9--- 13.2 13.990wxwxwx2wx--1016.5 992.0----wx
1999-07-20 04:00:00 15.2--- 13.4 14.189wxwx2wx--1016.5 992.0----wx
1999-07-20 05:00:00 16.8--- 14.5 15.486wxwx2wx--1016.3 992.0----wx
1999-07-20 06:00:00 19.2--- 15.0 16.677wxwx1wx--1016.5 992.4 0.0---wx
1999-07-20 07:00:00 20.2--- 16.5 17.879wxwx2wx--1016.0 992.0----wx
1999-07-20 08:00:00 25.0--- 15.5 18.956wxwx3wx--1015.6 991.9----wx
1999-07-20 09:00:00 26.8--- 13.8 18.645wxwx6wx--1015.0 991.5----wx
1999-07-20 10:00:00 27.2--- 14.1 18.945wxwx6wx--1015.0 991.5----wx
1999-07-20 11:00:00 27.8--- 13.5 18.841wxwx6wx--1014.4 991.0----wx
1999-07-20 12:00:00 28.4--- 12.6 18.638wxwx5wx--1014.1 990.7 0.0---wx
1999-07-20 13:00:00 28.8--- 14.0 19.440wxwxwx6wx--1013.5 990.2----wx
1999-07-20 14:00:00 29.6--- 14.7 20.040wxwxwx4wx--1013.0 989.8----wx
1999-07-20 15:00:00 29.2--- 11.6 18.434wxwx5wx--1012.5 989.2----wx
1999-07-20 16:00:00 29.0--- 14.7 19.842wxwxwx4wx--1012.2 988.9----wx
1999-07-20 17:00:00 27.1--- 14.7 19.247wxwxwx3wx--1012.2 988.8----wx
1999-07-20 18:00:00 24.3--- 15.6 18.758wxwxwxwx3wx--1012.6 989.0 0.0---wx
1999-07-20 19:00:00 23.0--- 16.0 18.565wxwxwxwx4wx--1013.6 989.8----wx
1999-07-20 20:00:00 21.8--- 15.3 17.767wxwxwxwx6wx--1013.6 989.7----wx
1999-07-20 21:00:00 21.2--- 16.9 18.476wxwxwxwx0wx--1014.0 990.1----wx
1999-07-20 22:00:00 20.0--- 15.9 17.477wxwxwx2wx--1014.0 990.0----wx
1999-07-20 23:00:00 19.0--- 15.3 16.779wxwxwx0wx--1014.0 989.9----wx

 

Źródłem pochodzenia danych jest Instytut Meteorologii i Gospodarki Wodnej – Państwowy Instytut Badawczy. Dane Instytutu Meteorologii i Gospodarki Wodnej – Państwowego Instytutu Badawczego zostały przetworzone.

Dane źródłowe można odnaleźć na stronie https://dane.imgw.pl